Ampere, New Jersey
Current Conditions -  °F | °C
As of 9:51 PM on Monday 20 Oct 2014 (Local Time) from KEWR Reporting Station
Broken Clouds Broken Clouds  
Wind Chill: 55°   Ceiling: 25000
Heat Index: 55°   Visibility: 10mi
Dew Point: 42°   Wind: 0mph
Humidity: 62%   Direction: NA
Pressure: 29.98"   Gusts: NA
Location:  40.7716°N, 74.2073°W
Report Text: KEWR 210151Z 00000KT 10SM FEW130 SCT190 BKN250 13/06 A2998 RMK AO2 SLP152 T01280056
Loading
Personal Weather Stations






























Interactive Weather Map
Tropical Storm Tracking
New forecast layout! Learn more

10-Day Weather Forecast

Advertisements
Track Severe Weather on mobile